sensor_id;sensor_type;location;lat;lon;timestamp;pressure;altitude;pressure_sealevel;temperature;humidity
51781;BME280;37844;57.126;24.288;2023-02-11T00:01:09;101295.81;;;0.93;100.00
51781;BME280;37844;57.126;24.288;2023-02-11T00:03:35;101299.72;;;0.88;100.00
51781;BME280;37844;57.126;24.288;2023-02-11T00:06:01;101293.47;;;0.82;100.00
51781;BME280;37844;57.126;24.288;2023-02-11T00:08:26;101289.91;;;0.79;100.00
51781;BME280;37844;57.126;24.288;2023-02-11T00:10:52;101271.06;;;0.75;100.00
51781;BME280;37844;57.126;24.288;2023-02-11T00:13:18;101261.97;;;0.79;100.00
51781;BME280;37844;57.126;24.288;2023-02-11T00:15:43;101254.28;;;0.77;100.00
51781;BME280;37844;57.126;24.288;2023-02-11T00:18:09;101227.16;;;0.76;100.00
51781;BME280;37844;57.126;24.288;2023-02-11T00:20:34;101242.44;;;0.78;100.00
51781;BME280;37844;57.126;24.288;2023-02-11T00:23:02;101215.75;;;0.70;100.00
51781;BME280;37844;57.126;24.288;2023-02-11T00:25:27;101206.25;;;0.52;100.00
51781;BME280;37844;57.126;24.288;2023-02-11T00:27:52;101196.72;;;0.48;100.00
51781;BME280;37844;57.126;24.288;2023-02-11T00:30:18;101195.91;;;0.49;100.00
51781;BME280;37844;57.126;24.288;2023-02-11T00:32:43;101175.00;;;0.38;100.00
51781;BME280;37844;57.126;24.288;2023-02-11T00:35:09;101162.94;;;0.49;100.00
51781;BME280;37844;57.126;24.288;2023-02-11T00:37:34;101161.78;;;0.44;100.00
51781;BME280;37844;57.126;24.288;2023-02-11T00:40:01;101149.38;;;0.49;100.00
51781;BME280;37844;57.126;24.288;2023-02-11T00:42:26;101144.50;;;0.52;100.00
51781;BME280;37844;57.126;24.288;2023-02-11T00:44:51;101138.72;;;0.54;100.00
51781;BME280;37844;57.126;24.288;2023-02-11T00:47:17;101118.09;;;0.48;100.00
51781;BME280;37844;57.126;24.288;2023-02-11T00:49:42;101101.38;;;0.52;100.00
51781;BME280;37844;57.126;24.288;2023-02-11T00:52:07;101101.09;;;0.47;100.00
51781;BME280;37844;57.126;24.288;2023-02-11T00:54:33;101095.53;;;0.53;100.00
51781;BME280;37844;57.126;24.288;2023-02-11T00:56:58;101099.91;;;0.55;100.00
51781;BME280;37844;57.126;24.288;2023-02-11T00:59:23;101101.84;;;0.59;100.00
51781;BME280;37844;57.126;24.288;2023-02-11T01:01:49;101095.09;;;0.60;100.00
51781;BME280;37844;57.126;24.288;2023-02-11T01:04:14;101079.63;;;0.55;100.00
51781;BME280;37844;57.126;24.288;2023-02-11T01:06:39;101064.13;;;0.66;100.00
51781;BME280;37844;57.126;24.288;2023-02-11T01:09:05;101062.19;;;0.61;100.00
51781;BME280;37844;57.126;24.288;2023-02-11T01:11:30;101038.88;;;0.67;100.00
51781;BME280;37844;57.126;24.288;2023-02-11T01:13:56;101038.16;;;0.70;100.00
51781;BME280;37844;57.126;24.288;2023-02-11T01:16:28;101055.13;;;0.71;100.00
51781;BME280;37844;57.126;24.288;2023-02-11T01:19:00;101032.13;;;0.68;100.00
51781;BME280;37844;57.126;24.288;2023-02-11T01:21:28;101025.97;;;0.64;100.00
51781;BME280;37844;57.126;24.288;2023-02-11T01:23:53;101028.09;;;0.71;100.00
51781;BME280;37844;57.126;24.288;2023-02-11T01:26:18;101022.41;;;0.75;100.00
51781;BME280;37844;57.126;24.288;2023-02-11T01:28:44;101006.41;;;0.76;100.00
51781;BME280;37844;57.126;24.288;2023-02-11T01:31:09;100988.72;;;0.78;100.00
51781;BME280;37844;57.126;24.288;2023-02-11T01:33:35;100971.22;;;0.82;100.00
51781;BME280;37844;57.126;24.288;2023-02-11T01:36:03;100963.34;;;0.78;100.00
51781;BME280;37844;57.126;24.288;2023-02-11T01:38:29;100965.19;;;0.80;100.00
51781;BME280;37844;57.126;24.288;2023-02-11T01:40:58;100949.19;;;0.81;100.00
51781;BME280;37844;57.126;24.288;2023-02-11T01:43:24;100941.72;;;0.84;100.00
51781;BME280;37844;57.126;24.288;2023-02-11T01:46:01;100933.50;;;0.89;100.00
51781;BME280;37844;57.126;24.288;2023-02-11T01:48:33;100933.16;;;0.82;100.00
51781;BME280;37844;57.126;24.288;2023-02-11T01:51:02;100909.53;;;0.83;100.00
51781;BME280;37844;57.126;24.288;2023-02-11T01:53:28;100900.25;;;0.84;100.00
51781;BME280;37844;57.126;24.288;2023-02-11T01:56:12;100884.31;;;0.87;100.00
51781;BME280;37844;57.126;24.288;2023-02-11T01:58:58;100879.16;;;0.85;100.00
51781;BME280;37844;57.126;24.288;2023-02-11T02:01:26;100861.75;;;0.91;100.00
51781;BME280;37844;57.126;24.288;2023-02-11T02:03:53;100844.69;;;0.89;100.00
51781;BME280;37844;57.126;24.288;2023-02-11T02:06:25;100835.66;;;0.94;100.00
51781;BME280;37844;57.126;24.288;2023-02-11T02:08:55;100845.25;;;0.99;100.00
51781;BME280;37844;57.126;24.288;2023-02-11T02:11:21;100821.69;;;1.02;100.00
51781;BME280;37844;57.126;24.288;2023-02-11T02:13:47;100804.00;;;1.03;100.00
51781;BME280;37844;57.126;24.288;2023-02-11T02:16:14;100800.47;;;1.00;100.00
51781;BME280;37844;57.126;24.288;2023-02-11T02:29:13;100760.00;;;1.03;100.00
51781;BME280;37844;57.126;24.288;2023-02-11T02:34:20;100743.19;;;1.05;100.00
51781;BME280;37844;57.126;24.288;2023-02-11T02:37:00;100733.97;;;1.07;100.00
51781;BME280;37844;57.126;24.288;2023-02-11T02:39:30;100727.69;;;1.17;100.00
51781;BME280;37844;57.126;24.288;2023-02-11T02:41:57;100715.25;;;1.21;100.00
51781;BME280;37844;57.126;24.288;2023-02-11T02:44:23;100705.13;;;1.23;100.00
51781;BME280;37844;57.126;24.288;2023-02-11T02:46:48;100711.03;;;1.22;100.00
51781;BME280;37844;57.126;24.288;2023-02-11T02:49:14;100692.53;;;1.24;100.00
51781;BME280;37844;57.126;24.288;2023-02-11T03:00:04;100647.00;;;1.45;100.00
51781;BME280;37844;57.126;24.288;2023-02-11T03:02:37;100629.06;;;1.42;100.00
51781;BME280;37844;57.126;24.288;2023-02-11T03:05:16;100619.13;;;1.47;100.00
51781;BME280;37844;57.126;24.288;2023-02-11T03:07:56;100603.31;;;1.53;100.00
51781;BME280;37844;57.126;24.288;2023-02-11T03:12:49;100608.00;;;1.63;100.00
51781;BME280;37844;57.126;24.288;2023-02-11T03:15:15;100587.63;;;1.61;100.00
51781;BME280;37844;57.126;24.288;2023-02-11T03:17:42;100591.91;;;1.62;100.00
51781;BME280;37844;57.126;24.288;2023-02-11T03:20:10;100593.72;;;1.65;100.00
51781;BME280;37844;57.126;24.288;2023-02-11T03:22:39;100589.66;;;1.68;100.00
51781;BME280;37844;57.126;24.288;2023-02-11T03:25:05;100588.34;;;1.77;100.00
51781;BME280;37844;57.126;24.288;2023-02-11T03:27:37;100585.78;;;1.77;100.00
51781;BME280;37844;57.126;24.288;2023-02-11T03:30:12;100579.84;;;1.76;100.00
51781;BME280;37844;57.126;24.288;2023-02-11T03:32:44;100596.78;;;1.76;100.00
51781;BME280;37844;57.126;24.288;2023-02-11T03:35:22;100580.72;;;1.77;100.00
51781;BME280;37844;57.126;24.288;2023-02-11T03:40:14;100557.31;;;1.84;100.00
51781;BME280;37844;57.126;24.288;2023-02-11T03:43:04;100545.34;;;1.81;100.00
51781;BME280;37844;57.126;24.288;2023-02-11T03:45:26;100555.63;;;1.84;100.00
51781;BME280;37844;57.126;24.288;2023-02-11T03:47:58;100532.50;;;1.78;100.00
51781;BME280;37844;57.126;24.288;2023-02-11T03:50:24;100534.31;;;1.81;100.00
51781;BME280;37844;57.126;24.288;2023-02-11T03:52:50;100514.66;;;1.77;100.00
51781;BME280;37844;57.126;24.288;2023-02-11T03:55:18;100507.16;;;1.80;100.00
51781;BME280;37844;57.126;24.288;2023-02-11T03:57:44;100487.56;;;1.77;100.00
51781;BME280;37844;57.126;24.288;2023-02-11T04:00:10;100488.56;;;1.81;100.00
51781;BME280;37844;57.126;24.288;2023-02-11T04:02:36;100461.19;;;1.75;100.00
51781;BME280;37844;57.126;24.288;2023-02-11T04:05:04;100455.13;;;1.72;100.00
51781;BME280;37844;57.126;24.288;2023-02-11T04:07:30;100445.91;;;1.74;100.00
51781;BME280;37844;57.126;24.288;2023-02-11T04:09:56;100449.13;;;1.69;100.00
51781;BME280;37844;57.126;24.288;2023-02-11T04:12:21;100435.53;;;1.69;100.00
51781;BME280;37844;57.126;24.288;2023-02-11T04:14:46;100428.38;;;1.60;100.00
51781;BME280;37844;57.126;24.288;2023-02-11T04:17:12;100428.50;;;1.63;100.00
51781;BME280;37844;57.126;24.288;2023-02-11T04:19:37;100419.25;;;1.64;100.00
51781;BME280;37844;57.126;24.288;2023-02-11T04:22:03;100430.09;;;1.61;100.00
51781;BME280;37844;57.126;24.288;2023-02-11T04:24:28;100437.81;;;1.63;100.00
51781;BME280;37844;57.126;24.288;2023-02-11T04:26:54;100415.06;;;1.66;100.00
51781;BME280;37844;57.126;24.288;2023-02-11T04:29:19;100408.38;;;1.68;100.00
51781;BME280;37844;57.126;24.288;2023-02-11T04:31:45;100404.03;;;1.65;100.00
51781;BME280;37844;57.126;24.288;2023-02-11T04:34:10;100408.25;;;1.65;100.00
51781;BME280;37844;57.126;24.288;2023-02-11T04:36:35;100392.00;;;1.61;100.00
51781;BME280;37844;57.126;24.288;2023-02-11T04:39:02;100384.53;;;1.64;100.00
51781;BME280;37844;57.126;24.288;2023-02-11T04:41:27;100378.50;;;1.62;100.00
51781;BME280;37844;57.126;24.288;2023-02-11T04:43:52;100365.19;;;1.68;100.00
51781;BME280;37844;57.126;24.288;2023-02-11T04:46:18;100366.13;;;1.70;100.00
51781;BME280;37844;57.126;24.288;2023-02-11T04:48:43;100389.47;;;1.61;100.00
51781;BME280;37844;57.126;24.288;2023-02-11T04:51:08;100376.75;;;1.61;100.00
51781;BME280;37844;57.126;24.288;2023-02-11T04:53:34;100375.34;;;1.68;100.00
51781;BME280;37844;57.126;24.288;2023-02-11T04:55:59;100371.09;;;1.67;100.00
51781;BME280;37844;57.126;24.288;2023-02-11T04:58:24;100360.06;;;1.66;100.00
51781;BME280;37844;57.126;24.288;2023-02-11T05:00:50;100346.75;;;1.72;100.00
51781;BME280;37844;57.126;24.288;2023-02-11T05:03:16;100345.81;;;1.70;100.00
51781;BME280;37844;57.126;24.288;2023-02-11T05:05:41;100338.84;;;1.66;100.00
51781;BME280;37844;57.126;24.288;2023-02-11T05:08:07;100328.69;;;1.66;100.00
51781;BME280;37844;57.126;24.288;2023-02-11T05:10:33;100310.88;;;1.64;100.00
51781;BME280;37844;57.126;24.288;2023-02-11T05:12:58;100320.41;;;1.70;100.00
51781;BME280;37844;57.126;24.288;2023-02-11T05:15:24;100303.38;;;1.67;100.00
51781;BME280;37844;57.126;24.288;2023-02-11T05:17:49;100298.16;;;1.64;100.00
51781;BME280;37844;57.126;24.288;2023-02-11T05:20:14;100299.88;;;1.65;100.00
51781;BME280;37844;57.126;24.288;2023-02-11T05:22:40;100290.84;;;1.72;100.00
51781;BME280;37844;57.126;24.288;2023-02-11T05:25:05;100309.44;;;1.71;100.00
51781;BME280;37844;57.126;24.288;2023-02-11T05:27:30;100286.59;;;1.71;100.00
51781;BME280;37844;57.126;24.288;2023-02-11T05:29:56;100289.25;;;1.74;100.00
51781;BME280;37844;57.126;24.288;2023-02-11T05:32:21;100295.13;;;1.73;100.00
51781;BME280;37844;57.126;24.288;2023-02-11T05:34:46;100293.19;;;1.67;100.00
51781;BME280;37844;57.126;24.288;2023-02-11T05:37:12;100268.81;;;1.71;100.00
51781;BME280;37844;57.126;24.288;2023-02-11T05:39:37;100278.16;;;1.72;100.00
51781;BME280;37844;57.126;24.288;2023-02-11T05:42:02;100275.78;;;1.77;100.00
51781;BME280;37844;57.126;24.288;2023-02-11T05:44:28;100263.03;;;1.75;100.00
51781;BME280;37844;57.126;24.288;2023-02-11T05:46:53;100257.91;;;1.74;100.00
51781;BME280;37844;57.126;24.288;2023-02-11T05:49:18;100271.66;;;1.79;100.00
51781;BME280;37844;57.126;24.288;2023-02-11T05:51:44;100258.31;;;1.84;100.00
51781;BME280;37844;57.126;24.288;2023-02-11T05:54:09;100257.44;;;1.84;100.00
51781;BME280;37844;57.126;24.288;2023-02-11T05:56:35;100247.53;;;1.90;100.00
51781;BME280;37844;57.126;24.288;2023-02-11T05:59:00;100244.25;;;1.93;100.00
51781;BME280;37844;57.126;24.288;2023-02-11T06:01:25;100257.75;;;1.91;100.00
51781;BME280;37844;57.126;24.288;2023-02-11T06:03:51;100238.22;;;1.90;100.00
51781;BME280;37844;57.126;24.288;2023-02-11T06:06:16;100239.66;;;1.84;100.00
51781;BME280;37844;57.126;24.288;2023-02-11T06:08:41;100221.97;;;1.87;100.00
51781;BME280;37844;57.126;24.288;2023-02-11T06:11:07;100222.25;;;1.93;100.00
51781;BME280;37844;57.126;24.288;2023-02-11T06:13:32;100228.28;;;1.97;100.00
51781;BME280;37844;57.126;24.288;2023-02-11T06:15:59;100214.50;;;1.90;100.00
51781;BME280;37844;57.126;24.288;2023-02-11T06:18:24;100164.28;;;1.62;100.00
51781;BME280;37844;57.126;24.288;2023-02-11T06:20:50;100225.81;;;1.98;100.00
51781;BME280;37844;57.126;24.288;2023-02-11T06:23:15;100222.59;;;2.02;100.00
51781;BME280;37844;57.126;24.288;2023-02-11T06:25:40;100226.94;;;2.05;100.00
51781;BME280;37844;57.126;24.288;2023-02-11T06:28:06;100212.63;;;2.07;100.00
51781;BME280;37844;57.126;24.288;2023-02-11T06:30:31;100208.28;;;2.04;100.00
51781;BME280;37844;57.126;24.288;2023-02-11T06:32:56;100213.47;;;2.07;100.00
51781;BME280;37844;57.126;24.288;2023-02-11T06:35:22;100205.19;;;2.13;100.00
51781;BME280;37844;57.126;24.288;2023-02-11T06:37:47;100209.53;;;2.16;100.00
51781;BME280;37844;57.126;24.288;2023-02-11T06:40:13;100195.69;;;2.07;100.00
51781;BME280;37844;57.126;24.288;2023-02-11T06:42:39;100192.50;;;2.13;100.00
51781;BME280;37844;57.126;24.288;2023-02-11T06:45:04;100191.88;;;2.19;100.00
51781;BME280;37844;57.126;24.288;2023-02-11T06:47:33;100191.81;;;2.17;100.00
51781;BME280;37844;57.126;24.288;2023-02-11T06:49:59;100192.94;;;2.25;100.00
51781;BME280;37844;57.126;24.288;2023-02-11T06:52:24;100193.84;;;2.26;100.00
51781;BME280;37844;57.126;24.288;2023-02-11T06:54:49;100198.34;;;2.33;100.00
51781;BME280;37844;57.126;24.288;2023-02-11T06:57:15;100193.13;;;2.30;100.00
51781;BME280;37844;57.126;24.288;2023-02-11T06:59:40;100196.66;;;2.33;100.00
51781;BME280;37844;57.126;24.288;2023-02-11T07:02:05;100187.41;;;2.36;100.00
51781;BME280;37844;57.126;24.288;2023-02-11T07:04:31;100198.69;;;2.42;100.00
51781;BME280;37844;57.126;24.288;2023-02-11T07:06:56;100191.06;;;2.42;100.00
51781;BME280;37844;57.126;24.288;2023-02-11T07:09:21;100187.75;;;2.45;100.00
51781;BME280;37844;57.126;24.288;2023-02-11T07:11:47;100188.81;;;2.51;100.00
51781;BME280;37844;57.126;24.288;2023-02-11T07:14:12;100179.53;;;2.52;100.00
51781;BME280;37844;57.126;24.288;2023-02-11T07:16:37;100186.41;;;2.54;100.00
51781;BME280;37844;57.126;24.288;2023-02-11T07:19:03;100179.97;;;2.64;100.00
51781;BME280;37844;57.126;24.288;2023-02-11T07:21:28;100174.88;;;2.64;100.00
51781;BME280;37844;57.126;24.288;2023-02-11T07:23:54;100183.63;;;2.72;100.00
51781;BME280;37844;57.126;24.288;2023-02-11T07:26:20;100175.31;;;2.76;100.00
51781;BME280;37844;57.126;24.288;2023-02-11T07:28:47;100182.19;;;2.79;100.00
51781;BME280;37844;57.126;24.288;2023-02-11T07:31:14;100180.72;;;2.86;100.00
51781;BME280;37844;57.126;24.288;2023-02-11T07:33:40;100187.09;;;2.98;100.00
51781;BME280;37844;57.126;24.288;2023-02-11T07:36:05;100185.63;;;3.05;100.00
51781;BME280;37844;57.126;24.288;2023-02-11T07:38:31;100183.47;;;3.16;100.00
51781;BME280;37844;57.126;24.288;2023-02-11T07:41:04;100186.16;;;3.21;100.00
51781;BME280;37844;57.126;24.288;2023-02-11T07:43:30;100186.56;;;3.33;100.00
51781;BME280;37844;57.126;24.288;2023-02-11T07:46:01;100192.13;;;3.47;100.00
51781;BME280;37844;57.126;24.288;2023-02-11T07:48:27;100192.16;;;3.48;100.00
51781;BME280;37844;57.126;24.288;2023-02-11T07:50:52;100197.25;;;3.48;100.00
51781;BME280;37844;57.126;24.288;2023-02-11T07:53:17;100190.75;;;3.58;100.00
51781;BME280;37844;57.126;24.288;2023-02-11T07:55:49;100192.69;;;3.65;100.00
51781;BME280;37844;57.126;24.288;2023-02-11T07:58:14;100198.03;;;3.73;100.00
51781;BME280;37844;57.126;24.288;2023-02-11T08:00:39;100193.13;;;3.79;100.00
51781;BME280;37844;57.126;24.288;2023-02-11T08:03:04;100197.66;;;3.88;100.00
51781;BME280;37844;57.126;24.288;2023-02-11T08:05:32;100186.81;;;3.95;100.00
51781;BME280;37844;57.126;24.288;2023-02-11T08:07:57;100194.53;;;3.96;100.00
51781;BME280;37844;57.126;24.288;2023-02-11T08:10:22;100188.69;;;4.00;100.00
51781;BME280;37844;57.126;24.288;2023-02-11T08:12:48;100193.97;;;4.07;100.00
51781;BME280;37844;57.126;24.288;2023-02-11T08:15:13;100190.59;;;4.08;100.00
51781;BME280;37844;57.126;24.288;2023-02-11T08:17:38;100185.75;;;4.15;100.00
51781;BME280;37844;57.126;24.288;2023-02-11T08:20:04;100188.53;;;4.24;100.00
51781;BME280;37844;57.126;24.288;2023-02-11T08:22:33;100196.31;;;4.28;100.00
51781;BME280;37844;57.126;24.288;2023-02-11T08:24:59;100187.75;;;4.25;100.00
51781;BME280;37844;57.126;24.288;2023-02-11T08:27:24;100196.31;;;4.28;100.00
51781;BME280;37844;57.126;24.288;2023-02-11T08:29:51;100190.66;;;4.38;100.00
51781;BME280;37844;57.126;24.288;2023-02-11T08:32:16;100186.41;;;4.38;100.00
51781;BME280;37844;57.126;24.288;2023-02-11T08:34:41;100182.00;;;4.33;100.00
51781;BME280;37844;57.126;24.288;2023-02-11T08:37:07;100188.22;;;4.42;100.00
51781;BME280;37844;57.126;24.288;2023-02-11T08:39:33;100194.16;;;4.41;100.00
51781;BME280;37844;57.126;24.288;2023-02-11T08:41:58;100195.97;;;4.45;100.00
51781;BME280;37844;57.126;24.288;2023-02-11T08:44:24;100193.34;;;4.42;100.00
51781;BME280;37844;57.126;24.288;2023-02-11T08:46:49;100200.41;;;4.53;100.00
51781;BME280;37844;57.126;24.288;2023-02-11T08:49:15;100205.63;;;4.56;100.00
51781;BME280;37844;57.126;24.288;2023-02-11T08:51:40;100199.50;;;4.51;100.00
51781;BME280;37844;57.126;24.288;2023-02-11T08:54:05;100203.88;;;4.53;100.00
51781;BME280;37844;57.126;24.288;2023-02-11T08:56:34;100209.78;;;4.52;100.00
51781;BME280;37844;57.126;24.288;2023-02-11T08:59:00;100210.13;;;4.64;100.00
51781;BME280;37844;57.126;24.288;2023-02-11T09:01:27;100208.31;;;4.60;100.00
51781;BME280;37844;57.126;24.288;2023-02-11T09:03:52;100213.53;;;4.65;100.00
51781;BME280;37844;57.126;24.288;2023-02-11T09:06:19;100212.59;;;4.61;100.00
51781;BME280;37844;57.126;24.288;2023-02-11T09:08:46;100223.84;;;4.68;100.00
51781;BME280;37844;57.126;24.288;2023-02-11T09:11:13;100222.34;;;4.75;100.00
51781;BME280;37844;57.126;24.288;2023-02-11T09:13:39;100229.22;;;4.79;100.00
51781;BME280;37844;57.126;24.288;2023-02-11T09:16:05;100218.81;;;4.71;100.00
51781;BME280;37844;57.126;24.288;2023-02-11T09:18:30;100231.75;;;4.77;100.00
51781;BME280;37844;57.126;24.288;2023-02-11T09:21:06;100227.25;;;4.68;100.00
51781;BME280;37844;57.126;24.288;2023-02-11T09:23:32;100234.84;;;4.67;100.00
51781;BME280;37844;57.126;24.288;2023-02-11T09:25:59;100242.16;;;4.55;100.00
51781;BME280;37844;57.126;24.288;2023-02-11T09:28:25;100250.53;;;4.51;100.00
51781;BME280;37844;57.126;24.288;2023-02-11T09:30:50;100267.41;;;4.45;100.00
51781;BME280;37844;57.126;24.288;2023-02-11T09:33:16;100264.50;;;4.33;100.00
51781;BME280;37844;57.126;24.288;2023-02-11T09:35:41;100275.06;;;4.17;100.00
51781;BME280;37844;57.126;24.288;2023-02-11T09:38:06;100288.56;;;4.14;100.00
51781;BME280;37844;57.126;24.288;2023-02-11T09:40:32;100281.09;;;3.93;100.00
51781;BME280;37844;57.126;24.288;2023-02-11T09:45:29;100284.09;;;4.07;100.00
51781;BME280;37844;57.126;24.288;2023-02-11T09:47:56;100288.13;;;4.00;100.00
51781;BME280;37844;57.126;24.288;2023-02-11T09:50:24;100298.03;;;3.91;100.00
51781;BME280;37844;57.126;24.288;2023-02-11T09:55:53;100307.75;;;4.03;100.00
51781;BME280;37844;57.126;24.288;2023-02-11T09:58:30;100308.44;;;3.97;100.00
51781;BME280;37844;57.126;24.288;2023-02-11T10:13:59;100319.53;;;3.48;100.00
51781;BME280;37844;57.126;24.288;2023-02-11T10:16:48;100333.19;;;3.50;100.00
51781;BME280;37844;57.126;24.288;2023-02-11T10:19:28;100339.59;;;3.39;100.00
51781;BME280;37844;57.126;24.288;2023-02-11T10:24:22;100365.13;;;3.40;100.00
51781;BME280;37844;57.126;24.288;2023-02-11T10:26:48;100373.81;;;3.46;100.00
51781;BME280;37844;57.126;24.288;2023-02-11T10:29:34;100368.88;;;3.50;100.00
51781;BME280;37844;57.126;24.288;2023-02-11T10:32:01;100372.88;;;3.44;100.00
51781;BME280;37844;57.126;24.288;2023-02-11T10:34:28;100384.75;;;3.43;100.00
51781;BME280;37844;57.126;24.288;2023-02-11T10:36:53;100392.06;;;3.34;100.00
51781;BME280;37844;57.126;24.288;2023-02-11T10:41:45;100402.16;;;3.31;100.00
51781;BME280;37844;57.126;24.288;2023-02-11T10:46:49;100402.09;;;3.29;100.00
51781;BME280;37844;57.126;24.288;2023-02-11T10:52:24;100421.88;;;3.36;100.00
51781;BME280;37844;57.126;24.288;2023-02-11T11:00:42;100442.50;;;3.91;100.00
51781;BME280;37844;57.126;24.288;2023-02-11T11:02:55;100412.03;;;3.46;100.00
51781;BME280;37844;57.126;24.288;2023-02-11T11:05:44;100463.72;;;3.66;100.00
51781;BME280;37844;57.126;24.288;2023-02-11T11:08:10;100477.88;;;3.81;100.00
51781;BME280;37844;57.126;24.288;2023-02-11T11:10:41;100477.72;;;3.77;100.00
51781;BME280;37844;57.126;24.288;2023-02-11T11:15:42;100482.94;;;3.80;100.00
51781;BME280;37844;57.126;24.288;2023-02-11T11:18:09;100498.19;;;3.56;100.00
51781;BME280;37844;57.126;24.288;2023-02-11T11:20:34;100504.75;;;3.49;100.00
51781;BME280;37844;57.126;24.288;2023-02-11T11:25:32;100527.66;;;3.27;100.00
51781;BME280;37844;57.126;24.288;2023-02-11T11:27:58;100536.69;;;3.18;100.00
51781;BME280;37844;57.126;24.288;2023-02-11T11:30:47;100541.53;;;3.12;100.00
51781;BME280;37844;57.126;24.288;2023-02-11T11:33:16;100554.44;;;2.96;100.00
51781;BME280;37844;57.126;24.288;2023-02-11T11:35:43;100556.25;;;2.98;100.00
51781;BME280;37844;57.126;24.288;2023-02-11T11:38:22;100567.13;;;2.73;100.00
51781;BME280;37844;57.126;24.288;2023-02-11T11:41:11;100576.44;;;2.94;100.00
51781;BME280;37844;57.126;24.288;2023-02-11T11:43:33;100571.16;;;2.89;100.00
51781;BME280;37844;57.126;24.288;2023-02-11T11:46:01;100591.16;;;2.80;100.00
51781;BME280;37844;57.126;24.288;2023-02-11T11:50:52;100600.69;;;2.65;100.00
51781;BME280;37844;57.126;24.288;2023-02-11T11:56:19;100605.41;;;2.76;100.00
51781;BME280;37844;57.126;24.288;2023-02-11T11:58:43;100621.84;;;2.64;100.00
51781;BME280;37844;57.126;24.288;2023-02-11T12:04:14;100626.38;;;2.90;100.00
51781;BME280;37844;57.126;24.288;2023-02-11T12:17:10;100654.72;;;2.59;100.00
51781;BME280;37844;57.126;24.288;2023-02-11T12:22:20;100658.88;;;2.57;100.00
51781;BME280;37844;57.126;24.288;2023-02-11T12:27:19;100669.09;;;2.59;100.00
51781;BME280;37844;57.126;24.288;2023-02-11T12:35:00;100684.19;;;2.54;100.00
51781;BME280;37844;57.126;24.288;2023-02-11T12:42:29;100721.13;;;2.46;100.00
51781;BME280;37844;57.126;24.288;2023-02-11T12:50:33;100756.44;;;2.58;100.00
51781;BME280;37844;57.126;24.288;2023-02-11T12:53:07;100774.03;;;2.53;100.00
51781;BME280;37844;57.126;24.288;2023-02-11T12:55:38;100774.25;;;2.58;100.00
51781;BME280;37844;57.126;24.288;2023-02-11T12:58:04;100781.03;;;2.39;100.00
51781;BME280;37844;57.126;24.288;2023-02-11T13:00:41;100781.34;;;2.09;100.00
51781;BME280;37844;57.126;24.288;2023-02-11T13:03:14;100793.03;;;2.06;100.00
51781;BME280;37844;57.126;24.288;2023-02-11T13:05:45;100805.28;;;1.97;100.00
51781;BME280;37844;57.126;24.288;2023-02-11T13:08:18;100809.16;;;2.06;100.00
51781;BME280;37844;57.126;24.288;2023-02-11T13:10:46;100833.59;;;2.21;100.00
51781;BME280;37844;57.126;24.288;2023-02-11T13:13:14;100839.91;;;2.29;100.00
51781;BME280;37844;57.126;24.288;2023-02-11T13:15:44;100843.63;;;2.36;100.00
51781;BME280;37844;57.126;24.288;2023-02-11T13:20:44;100867.06;;;2.12;100.00
51781;BME280;37844;57.126;24.288;2023-02-11T13:23:21;100861.75;;;2.07;100.00
51781;BME280;37844;57.126;24.288;2023-02-11T13:26:03;100847.59;;;1.95;100.00
51781;BME280;37844;57.126;24.288;2023-02-11T13:28:33;100874.97;;;2.00;100.00
51781;BME280;37844;57.126;24.288;2023-02-11T13:31:04;100881.06;;;2.04;100.00
51781;BME280;37844;57.126;24.288;2023-02-11T13:38:26;100904.78;;;1.86;100.00
51781;BME280;37844;57.126;24.288;2023-02-11T13:43:24;100930.34;;;1.73;100.00
51781;BME280;37844;57.126;24.288;2023-02-11T13:45:52;100934.25;;;1.83;100.00
51781;BME280;37844;57.126;24.288;2023-02-11T13:48:22;100960.53;;;1.83;100.00
51781;BME280;37844;57.126;24.288;2023-02-11T13:50:50;100960.84;;;1.73;100.00
51781;BME280;37844;57.126;24.288;2023-02-11T13:53:17;100970.13;;;1.73;100.00
51781;BME280;37844;57.126;24.288;2023-02-11T13:55:47;100988.88;;;1.75;100.00
51781;BME280;37844;57.126;24.288;2023-02-11T14:16:16;101085.28;;;1.72;100.00
51781;BME280;37844;57.126;24.288;2023-02-11T14:23:36;101136.31;;;1.91;100.00
51781;BME280;37844;57.126;24.288;2023-02-11T14:29:33;101168.34;;;1.73;100.00
51781;BME280;37844;57.126;24.288;2023-02-11T14:37:03;101202.03;;;1.68;100.00
51781;BME280;37844;57.126;24.288;2023-02-11T14:42:29;101229.00;;;1.81;100.00
51781;BME280;37844;57.126;24.288;2023-02-11T14:44:56;101232.75;;;1.73;100.00
51781;BME280;37844;57.126;24.288;2023-02-11T14:47:24;101236.81;;;1.69;100.00
51781;BME280;37844;57.126;24.288;2023-02-11T14:49:51;101258.59;;;1.66;100.00
51781;BME280;37844;57.126;24.288;2023-02-11T14:52:21;101258.53;;;1.64;100.00
51781;BME280;37844;57.126;24.288;2023-02-11T14:54:49;101267.84;;;1.64;100.00
51781;BME280;37844;57.126;24.288;2023-02-11T14:57:16;101285.94;;;1.55;100.00
51781;BME280;37844;57.126;24.288;2023-02-11T14:59:57;101298.22;;;1.62;100.00
51781;BME280;37844;57.126;24.288;2023-02-11T15:02:26;101301.38;;;1.58;100.00
51781;BME280;37844;57.126;24.288;2023-02-11T15:04:52;101320.44;;;1.52;100.00
51781;BME280;37844;57.126;24.288;2023-02-11T15:07:19;101322.56;;;1.59;100.00
51781;BME280;37844;57.126;24.288;2023-02-11T15:09:45;101334.56;;;1.61;100.00
51781;BME280;37844;57.126;24.288;2023-02-11T15:12:16;101349.22;;;1.65;100.00